createdAt,value
2019-05-23T00:00:01.512Z,10.84
2019-05-23T00:05:01.666Z,10.68
2019-05-23T00:10:01.771Z,10.56
2019-05-23T00:15:02.213Z,10.51
2019-05-23T00:20:01.519Z,10.43
2019-05-23T00:25:01.685Z,10.38
2019-05-23T00:30:01.827Z,10.29
2019-05-23T00:35:01.986Z,10.27
2019-05-23T00:40:01.221Z,10.26
2019-05-23T00:45:01.361Z,10.21
2019-05-23T00:50:01.499Z,10.15
2019-05-23T00:55:01.673Z,10.11
2019-05-23T01:00:01.868Z,10.05
2019-05-23T01:05:02.113Z,9.99
2019-05-23T01:10:01.469Z,9.95
2019-05-23T01:15:01.678Z,9.86
2019-05-23T01:20:02.019Z,9.81
2019-05-23T01:25:01.753Z,9.79
2019-05-23T01:30:01.899Z,9.76
2019-05-23T01:35:02.107Z,9.74
2019-05-23T01:40:01.234Z,9.75
2019-05-23T01:45:01.361Z,9.76
2019-05-23T01:50:01.709Z,9.8
2019-05-23T01:55:01.868Z,9.83
2019-05-23T02:00:09.762Z,9.9
2019-05-23T02:05:01.658Z,9.91
2019-05-23T02:10:01.793Z,9.94
2019-05-23T02:15:01.687Z,10
2019-05-23T02:20:01.875Z,10.06
2019-05-23T02:25:02.011Z,10.07
2019-05-23T02:30:01.110Z,10.04
2019-05-23T02:35:01.250Z,10.05
2019-05-23T02:40:01.546Z,10
2019-05-23T02:45:01.701Z,9.99
2019-05-23T02:50:01.856Z,9.95
2019-05-23T02:55:01.990Z,9.84
2019-05-23T03:00:01.137Z,9.77
2019-05-23T03:05:01.291Z,9.65
2019-05-23T03:10:01.385Z,9.59
2019-05-23T03:15:01.619Z,9.54
2019-05-23T03:20:01.874Z,9.52
2019-05-23T03:25:01.996Z,9.53
2019-05-23T03:30:01.139Z,9.44
2019-05-23T03:35:01.322Z,9.34
2019-05-23T03:40:01.464Z,9.27
2019-05-23T03:45:01.629Z,9.22
2019-05-23T03:50:01.765Z,9.15
2019-05-23T03:55:01.924Z,9.07
2019-05-23T04:00:02.063Z,9
2019-05-23T04:05:01.213Z,9.02
2019-05-23T04:10:01.356Z,9.07
2019-05-23T04:15:01.511Z,9.11
2019-05-23T04:20:01.616Z,9.24
2019-05-23T04:25:02.606Z,9.33
2019-05-23T04:30:01.911Z,9.4
2019-05-23T04:35:02.262Z,9.47
2019-05-23T04:40:01.229Z,9.56
2019-05-23T04:45:01.343Z,9.62
2019-05-23T04:50:01.486Z,9.81
2019-05-23T04:55:01.178Z,10.1
2019-05-23T05:00:01.312Z,10.48
2019-05-23T05:05:01.482Z,10.92
2019-05-23T05:10:01.640Z,11.54
2019-05-23T05:15:01.792Z,12.01
2019-05-23T05:20:02.407Z,12.25
2019-05-23T05:25:01.602Z,12.42
2019-05-23T05:30:02.270Z,12.88
2019-05-23T05:35:01.540Z,13.32
2019-05-23T05:40:01.673Z,13.12
2019-05-23T05:45:01.896Z,13.35
2019-05-23T05:50:02.037Z,13.56
2019-05-23T05:55:01.241Z,13.9
2019-05-23T06:00:01.378Z,14.6
2019-05-23T06:05:01.546Z,15.11
2019-05-23T06:10:01.694Z,15.44
2019-05-23T06:15:03.539Z,16.05
2019-05-23T06:20:02.134Z,16.33
2019-05-23T06:25:01.300Z,16.59
2019-05-23T06:30:01.437Z,16.98
2019-05-23T06:35:01.619Z,17.29
2019-05-23T06:40:02.051Z,17.34
2019-05-23T06:45:01.161Z,17.37
2019-05-23T06:50:01.304Z,18.05
2019-05-23T06:55:01.464Z,17.88
2019-05-23T07:00:01.553Z,17.59
2019-05-23T07:05:01.708Z,18.09
2019-05-23T07:10:02.406Z,18.33
2019-05-23T07:15:02.258Z,19.12
2019-05-23T07:20:01.534Z,19.21
2019-05-23T07:25:01.674Z,19.11
2019-05-23T07:30:01.907Z,19.31
2019-05-23T07:35:01.133Z,19.6
2019-05-23T07:40:01.264Z,20.07
2019-05-23T07:45:01.497Z,19.95
2019-05-23T07:50:01.871Z,20.18
2019-05-23T07:55:02.102Z,20.07
2019-05-23T08:00:01.240Z,19.94
2019-05-23T08:05:01.410Z,19.97
2019-05-23T08:10:01.581Z,20.14
2019-05-23T08:15:01.777Z,20.44
2019-05-23T08:20:01.919Z,20.55
2019-05-23T08:25:02.035Z,21.06
2019-05-23T08:30:02.362Z,20.93
2019-05-23T08:35:02.195Z,21.34
2019-05-23T08:40:01.409Z,21.02
2019-05-23T08:45:01.544Z,20.31
2019-05-23T08:50:01.699Z,20.15
2019-05-23T08:55:01.867Z,20.59
2019-05-23T09:00:02.072Z,19.62
2019-05-23T09:05:05.152Z,19.62
2019-05-23T09:10:01.486Z,20.6
2019-05-23T09:15:01.678Z,20.89
2019-05-23T09:20:01.824Z,21.08
2019-05-23T09:25:01.939Z,20.99
2019-05-23T09:30:02.117Z,21.07
2019-05-23T09:35:01.421Z,21.06
2019-05-23T09:40:01.647Z,21.38
2019-05-23T09:45:01.782Z,21.47
2019-05-23T09:50:01.942Z,21.58
2019-05-23T09:55:02.077Z,21.78
2019-05-23T10:00:01.229Z,22.08
2019-05-23T10:05:01.405Z,22.07
2019-05-23T10:10:01.584Z,21.54
2019-05-23T10:15:01.715Z,21.81
2019-05-23T10:20:01.943Z,22.22
2019-05-23T10:25:02.032Z,22.31
2019-05-23T10:30:01.180Z,21.7
2019-05-23T10:35:01.386Z,21.4
2019-05-23T10:40:01.595Z,21.52
2019-05-23T10:45:01.756Z,21.46
2019-05-23T10:50:07.300Z,20.85
2019-05-23T10:55:01.821Z,21.1
2019-05-23T11:00:01.969Z,20.85
2019-05-23T11:05:12.055Z,20.15
2019-05-23T11:10:01.922Z,19.81
2019-05-23T11:15:02.266Z,20.04
2019-05-23T11:20:01.444Z,20.12
2019-05-23T11:25:01.657Z,20.3
2019-05-23T11:30:01.863Z,20.37
2019-05-23T11:35:02.025Z,20.68
2019-05-23T11:40:01.162Z,21.08
2019-05-23T11:45:01.269Z,21.3
2019-05-23T11:50:01.432Z,21.59
2019-05-23T11:55:01.566Z,21.53
2019-05-23T12:00:01.699Z,21.28
2019-05-23T12:05:01.832Z,21.23
2019-05-23T12:10:02.032Z,21.06
2019-05-23T12:15:01.170Z,21.19
2019-05-23T12:20:01.315Z,21.2
2019-05-23T12:25:20.189Z,21.37
2019-05-23T12:30:01.535Z,21.07
2019-05-23T12:35:10.605Z,21.36
2019-05-23T12:40:01.913Z,21.57
2019-05-23T12:45:02.212Z,21.6
2019-05-23T12:50:01.335Z,21.4
2019-05-23T12:55:01.438Z,21.36
2019-05-23T13:00:01.574Z,21.3
2019-05-23T13:05:01.719Z,21.29
2019-05-23T13:10:01.861Z,21.38
2019-05-23T13:15:02.020Z,21.4
2019-05-23T13:20:01.335Z,21.52
2019-05-23T13:25:01.541Z,21.69
2019-05-23T13:30:01.761Z,21.65
2019-05-23T13:35:01.989Z,21.63
2019-05-23T13:40:01.168Z,21.61
2019-05-23T13:45:01.434Z,21.58
2019-05-23T13:50:01.574Z,21.47
2019-05-23T13:55:01.790Z,21.54
2019-05-23T14:00:01.905Z,21.81
2019-05-23T14:05:02.056Z,21.81
2019-05-23T14:10:01.197Z,21.67
2019-05-23T14:15:01.383Z,21.64
2019-05-23T14:20:01.526Z,21.67
2019-05-23T14:25:01.691Z,21.79
2019-05-23T14:30:10.287Z,21.85
2019-05-23T14:35:01.857Z,21.94
2019-05-23T14:40:02.008Z,21.89
2019-05-23T14:45:01.217Z,22.07
2019-05-23T14:50:01.329Z,22.04
2019-05-23T14:55:01.482Z,22.1
2019-05-23T15:00:01.665Z,22.04
2019-05-23T15:05:01.819Z,21.97
2019-05-23T15:10:02.009Z,21.73
2019-05-23T15:15:01.156Z,21.83
2019-05-23T15:20:01.291Z,21.87
2019-05-23T15:25:01.421Z,21.81
2019-05-23T15:30:01.681Z,21.93
2019-05-23T15:35:01.895Z,21.88
2019-05-23T15:40:02.055Z,21.78
2019-05-23T15:45:01.244Z,21.81
2019-05-23T15:50:05.544Z,21.91
2019-05-23T15:55:01.133Z,21.96
2019-05-23T16:00:01.263Z,21.89
2019-05-23T16:05:01.473Z,21.8
2019-05-23T16:10:01.680Z,21.77
2019-05-23T16:15:01.861Z,21.73
2019-05-23T16:20:02.007Z,21.49
2019-05-23T16:25:01.232Z,21.32
2019-05-23T16:30:01.411Z,21.28
2019-05-23T16:35:01.544Z,21.22
2019-05-23T16:40:01.683Z,21.23
2019-05-23T16:45:01.915Z,21
2019-05-23T16:50:02.063Z,20.72
2019-05-23T16:55:01.192Z,20.58
2019-05-23T17:00:01.325Z,20.29
2019-05-23T17:05:09.875Z,20
2019-05-23T17:10:08.372Z,20.15
2019-05-23T17:15:01.363Z,20.44
2019-05-23T17:20:01.818Z,20.28
2019-05-23T17:25:01.823Z,20
2019-05-23T17:30:02.036Z,19.98
2019-05-23T17:35:01.198Z,19.85
2019-05-23T17:40:01.359Z,19.87
2019-05-23T17:45:01.538Z,19.94
2019-05-23T17:50:01.676Z,19.84
2019-05-23T17:55:01.812Z,19.88
2019-05-23T18:00:01.947Z,19.7
2019-05-23T18:05:02.156Z,19.56
2019-05-23T18:10:01.346Z,19.53
2019-05-23T18:15:01.590Z,19.33
2019-05-23T18:20:01.720Z,19.14
2019-05-23T18:25:01.877Z,18.99
2019-05-23T18:30:02.115Z,18.81
2019-05-23T18:35:01.270Z,18.69
2019-05-23T18:40:01.413Z,18.52
2019-05-23T18:45:01.579Z,18.32
2019-05-23T18:50:01.716Z,18.14
2019-05-23T18:55:01.859Z,17.96
2019-05-23T19:00:02.022Z,17.74
2019-05-23T19:05:01.224Z,17.53
2019-05-23T19:10:01.355Z,17.32
2019-05-23T19:15:01.467Z,17.11
2019-05-23T19:20:01.632Z,16.87
2019-05-23T19:25:01.809Z,16.62
2019-05-23T19:30:01.905Z,16.5
2019-05-23T19:35:02.069Z,16.39
2019-05-23T19:40:01.200Z,16.33
2019-05-23T19:45:01.335Z,16.25
2019-05-23T19:50:01.466Z,16.12
2019-05-23T19:55:01.601Z,15.97
2019-05-23T20:00:01.694Z,15.81
2019-05-23T20:05:01.885Z,15.75
2019-05-23T20:10:02.595Z,15.62
2019-05-23T20:15:02.081Z,15.51
2019-05-23T20:20:01.223Z,15.36
2019-05-23T20:25:01.377Z,15.24
2019-05-23T20:30:01.512Z,15.12
2019-05-23T20:35:01.664Z,14.99
2019-05-23T20:40:01.924Z,14.91
2019-05-23T20:45:01.204Z,14.87
2019-05-23T20:50:01.339Z,14.85
2019-05-23T20:55:01.470Z,14.85
2019-05-23T21:00:01.601Z,15.02
2019-05-23T21:05:01.787Z,14.91
2019-05-23T21:10:01.921Z,14.65
2019-05-23T21:15:02.047Z,14.39
2019-05-23T21:20:01.145Z,14.51
2019-05-23T21:25:01.295Z,14.34
2019-05-23T21:30:01.437Z,14.38
2019-05-23T21:35:01.624Z,14.21
2019-05-23T21:40:01.771Z,14.07
2019-05-23T21:45:01.932Z,14.01
2019-05-23T21:50:02.177Z,13.88
2019-05-23T21:55:01.428Z,13.78
2019-05-23T22:00:01.547Z,13.61
2019-05-23T22:05:01.734Z,13.53
2019-05-23T22:10:01.854Z,13.43
2019-05-23T22:15:01.986Z,13.37
2019-05-23T22:20:01.123Z,13.39
2019-05-23T22:25:01.818Z,13.35
2019-05-23T22:30:01.970Z,13.31
2019-05-23T22:35:01.141Z,13.23
2019-05-23T22:40:01.274Z,13.22
2019-05-23T22:45:01.496Z,13.2
2019-05-23T22:50:01.687Z,13.04
2019-05-23T22:55:01.834Z,12.92
2019-05-23T23:00:02.224Z,12.88
2019-05-23T23:05:01.444Z,12.92
2019-05-23T23:10:01.721Z,12.92
2019-05-23T23:15:02.043Z,12.9
2019-05-23T23:20:01.256Z,12.86
2019-05-23T23:25:01.416Z,12.84
2019-05-23T23:30:01.541Z,12.97
2019-05-23T23:35:01.708Z,13.07
2019-05-23T23:40:01.895Z,13.14
2019-05-23T23:45:02.100Z,13.25
2019-05-23T23:50:01.227Z,13.21
2019-05-23T23:55:01.367Z,13.09
